createdAt,value
2019-01-24T00:00:37.318Z,45.60
2019-01-24T00:05:44.468Z,45.60
2019-01-24T00:10:50.389Z,45.60
2019-01-24T00:15:56.140Z,45.50
2019-01-24T00:21:01.727Z,45.40
2019-01-24T00:26:09.108Z,45.10
2019-01-24T00:31:15.588Z,45.10
2019-01-24T00:36:21.848Z,45.20
2019-01-24T00:41:27.802Z,45.20
2019-01-24T00:46:33.458Z,45.20
2019-01-24T00:51:39.600Z,45.20
2019-01-24T00:56:45.368Z,45.20
2019-01-24T01:01:52.158Z,45.20
2019-01-24T01:06:58.680Z,45.10
2019-01-24T01:12:04.708Z,45.10
2019-01-24T01:17:10.648Z,45.10
2019-01-24T01:22:16.228Z,45.10
2019-01-24T01:27:22.108Z,45.20
2019-01-24T01:32:27.749Z,45.10
2019-01-24T01:37:33.308Z,45.10
2019-01-24T01:42:39.219Z,45.10
2019-01-24T01:47:44.961Z,45.00
2019-01-24T01:52:50.829Z,45.00
2019-01-24T01:57:56.618Z,44.90
2019-01-24T02:03:02.439Z,44.90
2019-01-24T02:08:08.468Z,44.80
2019-01-24T02:13:14.330Z,44.80
2019-01-24T02:18:20.038Z,44.70
2019-01-24T02:23:25.968Z,44.70
2019-01-24T02:28:31.668Z,44.70
2019-01-24T02:33:56.389Z,44.70
2019-01-24T02:39:02.311Z,44.70
2019-01-24T02:44:08.100Z,44.60
2019-01-24T02:49:14.089Z,44.60
2019-01-24T02:54:19.947Z,44.50
2019-01-24T02:59:25.652Z,44.40
2019-01-24T03:04:31.358Z,44.40
2019-01-24T03:09:37.088Z,44.40
2019-01-24T03:14:43.160Z,44.40
2019-01-24T03:19:49.177Z,44.40
2019-01-24T03:24:54.977Z,44.30
2019-01-24T03:30:00.838Z,44.30
2019-01-24T03:35:08.969Z,44.30
2019-01-24T03:40:14.953Z,44.30
2019-01-24T03:45:20.590Z,44.20
2019-01-24T03:50:26.370Z,44.20
2019-01-24T03:55:32.111Z,44.20
2019-01-24T04:00:37.839Z,44.20
2019-01-24T04:05:43.620Z,44.20
2019-01-24T04:10:49.287Z,44.30
2019-01-24T04:15:54.868Z,44.20
2019-01-24T04:21:00.853Z,44.20
2019-01-24T04:26:06.878Z,44.20
2019-01-24T04:31:12.528Z,44.10
2019-01-24T04:36:18.268Z,44.00
2019-01-24T04:41:24.058Z,44.00
2019-01-24T04:46:29.769Z,44.00
2019-01-24T04:51:35.578Z,44.00
2019-01-24T04:56:41.618Z,44.00
2019-01-24T05:01:47.471Z,43.90
2019-01-24T05:07:12.251Z,43.90
2019-01-24T05:12:21.068Z,44.00
2019-01-24T05:17:27.498Z,44.00
2019-01-24T05:22:33.549Z,44.00
2019-01-24T05:27:39.578Z,43.90
2019-01-24T05:32:45.477Z,43.90
2019-01-24T05:38:02.687Z,43.90
2019-01-24T05:43:08.468Z,43.90
2019-01-24T05:48:14.318Z,43.90
2019-01-24T05:53:20.908Z,43.90
2019-01-24T05:58:26.888Z,43.90
2019-01-24T06:03:32.689Z,43.80
2019-01-24T06:08:38.588Z,43.80
2019-01-24T06:13:44.379Z,43.70
2019-01-24T06:18:50.089Z,43.80
2019-01-24T06:23:55.808Z,43.60
2019-01-24T06:29:03.012Z,43.60
2019-01-24T06:34:09.005Z,43.40
2019-01-24T06:39:14.952Z,43.50
2019-01-24T06:44:20.548Z,43.60
2019-01-24T06:49:26.480Z,43.80
2019-01-24T06:54:32.438Z,44.10
2019-01-24T06:59:38.844Z,44.30
2019-01-24T07:04:44.769Z,44.10
2019-01-24T07:09:50.628Z,44.30
2019-01-24T07:14:56.288Z,44.40
2019-01-24T07:20:02.168Z,44.40
2019-01-24T07:25:09.607Z,44.30
2019-01-24T07:30:16.080Z,43.90
2019-01-24T07:35:21.988Z,44.00
2019-01-24T07:40:28.151Z,43.80
2019-01-24T07:45:36.748Z,43.30
2019-01-24T07:50:42.458Z,41.50
2019-01-24T07:55:48.728Z,43.70
2019-01-24T08:00:54.669Z,43.30
2019-01-24T08:06:00.639Z,44.10
2019-01-24T08:11:06.318Z,43.40
2019-01-24T08:16:12.448Z,44.00
2019-01-24T08:21:18.578Z,43.30
2019-01-24T08:26:24.388Z,43.80
2019-01-24T08:31:30.189Z,44.20
2019-01-24T08:36:36.119Z,44.00
2019-01-24T08:41:42.009Z,44.00
2019-01-24T08:46:47.619Z,44.00
2019-01-24T08:51:54.278Z,43.90
2019-01-24T08:57:00.169Z,43.90
2019-01-24T09:02:05.829Z,43.90
2019-01-24T09:07:12.688Z,43.90
2019-01-24T09:12:18.458Z,44.00
2019-01-24T09:17:24.278Z,43.90
2019-01-24T09:22:30.738Z,43.80
2019-01-24T09:27:36.919Z,43.90
2019-01-24T09:32:42.738Z,43.80
2019-01-24T09:37:49.088Z,44.00
2019-01-24T09:42:54.888Z,43.90
2019-01-24T09:48:01.831Z,43.80
2019-01-24T09:53:07.697Z,43.60
2019-01-24T09:58:13.298Z,43.60
2019-01-24T10:03:18.436Z,43.60
2019-01-24T10:08:24.108Z,43.60
2019-01-24T10:13:29.959Z,43.30
2019-01-24T10:18:35.861Z,43.20
2019-01-24T10:23:41.659Z,43.30
2019-01-24T10:28:47.548Z,43.30
2019-01-24T10:33:53.180Z,43.80
2019-01-24T10:38:58.868Z,44.10
2019-01-24T10:44:04.719Z,43.30
2019-01-24T10:49:10.628Z,43.60
2019-01-24T10:54:16.448Z,43.50
2019-01-24T10:59:22.208Z,43.40
2019-01-24T11:04:27.469Z,43.50
2019-01-24T11:09:33.268Z,43.70
2019-01-24T11:14:39.039Z,43.70
2019-01-24T11:19:44.929Z,43.40
2019-01-24T11:24:50.832Z,44.00
2019-01-24T11:29:56.058Z,44.30
2019-01-24T11:35:02.070Z,43.70
2019-01-24T11:40:08.958Z,44.50
2019-01-24T11:45:15.289Z,44.50
2019-01-24T11:50:21.648Z,43.30
2019-01-24T11:55:27.550Z,44.10
2019-01-24T12:00:38.049Z,44.60
2019-01-24T12:05:43.940Z,44.20
2019-01-24T12:10:49.630Z,44.30
2019-01-24T12:15:55.478Z,44.40
2019-01-24T12:21:01.182Z,43.80
2019-01-24T12:26:06.988Z,43.90
2019-01-24T12:31:12.089Z,44.30
2019-01-24T12:36:19.426Z,43.50
2019-01-24T12:41:25.918Z,44.30
2019-01-24T12:46:32.258Z,44.70
2019-01-24T12:51:38.697Z,44.80
2019-01-24T12:56:44.669Z,54.80
2019-01-24T13:01:50.478Z,43.10
2019-01-24T13:06:56.839Z,44.20
2019-01-24T13:12:02.528Z,44.70
2019-01-24T13:17:08.349Z,44.90
2019-01-24T13:22:14.591Z,44.30
2019-01-24T13:27:21.288Z,45.30
2019-01-24T13:32:27.198Z,45.20
2019-01-24T13:37:33.230Z,45.10
2019-01-24T13:42:39.068Z,45.10
2019-01-24T13:47:44.986Z,45.30
2019-01-24T13:52:51.258Z,45.30
2019-01-24T13:57:57.219Z,45.60
2019-01-24T14:03:25.207Z,46.10
2019-01-24T14:08:31.206Z,46.00
2019-01-24T14:13:37.048Z,46.00
2019-01-24T14:18:43.081Z,46.10
2019-01-24T14:23:48.910Z,45.40
2019-01-24T14:28:54.832Z,45.40
2019-01-24T14:34:00.729Z,44.60
2019-01-24T14:39:09.039Z,45.00
2019-01-24T14:44:14.790Z,45.30
2019-01-24T14:49:20.297Z,45.50
2019-01-24T14:54:26.108Z,45.60
2019-01-24T14:59:31.429Z,45.80
2019-01-24T15:04:37.147Z,45.90
2019-01-24T15:09:42.940Z,46.10
2019-01-24T15:14:48.800Z,46.10
2019-01-24T15:19:54.694Z,46.30
2019-01-24T15:25:01.539Z,46.20
2019-01-24T15:30:08.687Z,46.10
2019-01-24T15:35:14.449Z,46.30
2019-01-24T15:40:22.420Z,46.20
2019-01-24T15:45:28.298Z,46.20
2019-01-24T15:50:34.184Z,46.20
2019-01-24T15:55:39.958Z,46.20
2019-01-24T16:00:45.032Z,46.50
2019-01-24T16:05:50.798Z,46.40
2019-01-24T16:10:56.649Z,46.40
2019-01-24T16:16:02.784Z,46.50
2019-01-24T16:21:08.699Z,46.50
2019-01-24T16:26:14.578Z,46.60
2019-01-24T16:31:20.458Z,45.30
2019-01-24T16:36:26.289Z,45.20
2019-01-24T16:41:32.178Z,46.20
2019-01-24T16:46:37.949Z,46.70
2019-01-24T16:51:43.617Z,47.30
2019-01-24T16:56:49.298Z,46.80
2019-01-24T17:01:55.249Z,46.50
2019-01-24T17:07:00.989Z,46.50
2019-01-24T17:12:06.840Z,46.10
2019-01-24T17:17:12.798Z,46.60
2019-01-24T17:22:18.036Z,46.70
2019-01-24T17:27:23.618Z,46.80
2019-01-24T17:32:30.412Z,46.70
2019-01-24T17:37:36.838Z,46.90
2019-01-24T17:42:42.526Z,47.00
2019-01-24T17:47:49.097Z,46.50
2019-01-24T17:52:55.210Z,46.20
2019-01-24T17:58:01.299Z,46.50
2019-01-24T18:03:08.448Z,47.00
2019-01-24T18:08:14.068Z,46.80
2019-01-24T18:13:20.418Z,47.30
2019-01-24T18:18:26.301Z,47.10
2019-01-24T18:23:32.888Z,47.10
2019-01-24T18:28:40.078Z,47.40
2019-01-24T18:33:45.660Z,46.90
2019-01-24T18:38:52.458Z,47.00
2019-01-24T18:43:58.828Z,47.30
2019-01-24T18:49:04.601Z,47.10
2019-01-24T18:54:10.199Z,47.40
2019-01-24T18:59:15.909Z,47.50
2019-01-24T19:04:21.499Z,45.80
2019-01-24T19:09:27.348Z,46.30
2019-01-24T19:14:36.982Z,45.90
2019-01-24T19:19:43.519Z,46.40
2019-01-24T19:24:51.371Z,45.60
2019-01-24T19:29:57.389Z,45.00
2019-01-24T19:35:03.347Z,45.70
2019-01-24T19:40:09.747Z,45.90
2019-01-24T19:45:18.231Z,46.10
2019-01-24T19:50:26.248Z,46.10
2019-01-24T19:55:32.208Z,46.10
2019-01-24T20:00:37.974Z,46.10
2019-01-24T20:05:43.619Z,46.10
2019-01-24T20:10:49.660Z,46.20
2019-01-24T20:15:55.408Z,46.20
2019-01-24T20:21:01.066Z,46.20
2019-01-24T20:26:06.950Z,46.00
2019-01-24T20:31:13.131Z,46.10
2019-01-24T20:36:19.191Z,46.20
2019-01-24T20:41:25.128Z,46.10
2019-01-24T20:46:31.297Z,46.60
2019-01-24T20:51:37.420Z,46.20
2019-01-24T20:56:44.019Z,46.60
2019-01-24T21:01:49.999Z,47.00
2019-01-24T21:06:56.199Z,47.10
2019-01-24T21:12:01.729Z,47.30
2019-01-24T21:17:07.900Z,48.00
2019-01-24T21:22:14.458Z,48.00
2019-01-24T21:27:20.189Z,48.10
2019-01-24T21:32:26.050Z,48.00
2019-01-24T21:37:31.870Z,48.10
2019-01-24T21:42:37.449Z,48.10
2019-01-24T21:47:42.781Z,48.00
2019-01-24T21:52:48.561Z,48.00
2019-01-24T21:57:54.543Z,48.00
2019-01-24T22:03:00.416Z,48.00
2019-01-24T22:08:06.391Z,48.00
2019-01-24T22:13:12.511Z,47.80
2019-01-24T22:18:18.322Z,47.70
2019-01-24T22:23:23.962Z,47.80
2019-01-24T22:28:29.852Z,47.80
2019-01-24T22:33:36.070Z,47.60
2019-01-24T22:38:41.641Z,47.50
2019-01-24T22:43:47.457Z,47.60
2019-01-24T22:48:53.161Z,47.50
2019-01-24T22:54:00.162Z,47.50
2019-01-24T22:59:06.711Z,47.50
2019-01-24T23:04:17.658Z,47.60
2019-01-24T23:09:23.469Z,47.50
2019-01-24T23:14:29.214Z,47.50
2019-01-24T23:19:34.833Z,47.50
2019-01-24T23:24:40.300Z,47.50
2019-01-24T23:29:45.928Z,47.50
2019-01-24T23:34:51.367Z,47.60
2019-01-24T23:39:56.351Z,47.60
2019-01-24T23:45:01.940Z,47.40
2019-01-24T23:50:07.549Z,47.50
2019-01-24T23:55:13.224Z,47.40
